Record high temperature 45.5°C Record low temperature -0.3°C Record high gust 85.1 km/h Record high average 77.7 km/h Record daily rain 139.6 mm Record low windchill -5.8°C Record high barometer 1043.6 hPa Record low barometer 978.0 hPa
Daily high pressure 1012.8 mb Daily low pressure 1011.5 mb Daily low windchill 23.6°C Daily high heat index 28.1°C Daily high gust speed 13.0 kmh NE Daily high average speed 6.8 kmh NE
MeteoMurcia.com
Ultima grabación a: 06:00 Data: 25 July 2024, time of next update: 06:05
Tiempo actualClear/Night Temperatura actual23.6°C (74.5°F) (Indice de Calor23.6°C ), Temperatura aparente 25.7°C
Temperatura máxima (desde medianoche)28.2°C at: 00:00 Temperatura mínima (desde medianoche)23.6°C at: 05:59
Velocidad media del viento (diez minutos)3.7 kmh (2.0 kts) Dirección del viento (diez minutos)NE (45°)
Temperatura aparente 23.6°C ráfagas maxima (última hora)8.3 kmh (4.5 kts) at: 05:03
ráfagas maxima (desde medianoche)13.0 kmh (7.0 kts) at: 03:43 Maximo media de un minuto (desde medianoche)6.8 kmh (3.7 kts) at: 02:48
Lluvia (última hora)0.0 mm Lluvia (desde medianoche)0.0 mm (0.00 in.)---
Lluvia Este mes 0.0 mm (0.00 in.) Lluvia Hasta la fecha este año121.8 mm (4.80 in.)
Lluvia máxima por minuto (última hora)0.0 mm/min Lluvia maxima por hora (últimas 6 horas)0.0 mm/hora
Lluvia de ayer 0.0 mm Punto de rocío 19.1°C (Wet Bulb :20.7°C )
Humedad 76 %, Humidex 30.5°C Barómetro corregido a msl1011.6 mb
cambio de presión-0.1 mb (última hora) Tendencia (últimas 1 hora)ESTACIONARIO
cambio de presión (últimas 12 horas)-1.6 mb cambio de presión (últimas 6 horas)-1.2 mb
Current Temp. Interna 30.4°C
Current Hum. Interna 51%


Última imagen cámara web


Weather report/warning/Metars

Murcia / Alcantarilla, Spain (LERI) 37-57N 001-14W 75M
Jul 24, 2024 - 02:00 PM EDT / 2024.07.24 1800 UTC
Wind: from the SSE (150 degrees) at 10 MPH (9 KT):0
Visibility: greater than 7 mile(s):0
Temperature: 95 F (35 C)
Dew Point: 48 F (9 C)
Relative Humidity: 20%
Pressure (altimeter): 29.91 in. Hg (1013 hPa)
ob: LERI 241800Z 15009KT CAVOK 35/09 Q1013 NOSIG
cycle: 18
Station name not available
Jul 24, 2024 - 11:30 PM EDT / 2024.07.25 0330 UTC
Wind: from the N (350 degrees) at 6 MPH (5 KT):0
Visibility: greater than 7 mile(s):0
Temperature: 75 F (24 C)
Dew Point: 53 F (12 C)
Relative Humidity: 46%
Pressure (altimeter): 29.91 in. Hg (1013 hPa)
ob: LEMI 250330Z AUTO 35005KT CAVOK 24/12 Q1013
cycle: 3
Alicante / El Altet, Spain (LEAL) 38-17N 000-33W 31M
Jul 24, 2024 - 11:30 PM EDT / 2024.07.25 0330 UTC
Wind: from the N (360 degrees) at 2 MPH (2 KT):0
Visibility: greater than 7 mile(s):0
Temperature: 75 F (24 C)
Dew Point: 64 F (18 C)
Relative Humidity: 69%
Pressure (altimeter): 29.88 in. Hg (1012 hPa)
ob: LEAL 250330Z 36002KT CAVOK 24/18 Q1012 NOSIG
cycle: 3



La informacion se graba a intervalos de 2 minutos, pero hay info grabada cada minuto. Optimizado para 800*600 y Color verdadero. Use el boton de

Use the RECARGA en su navegador para recojer la ulima info.

Clicar aquí para regarga diaria de medias/extremas del mes














Created by "Weather Display" software version 10.37S151 at this start time/date 23:32:28 22/07/2024

La estación de MeteoMurcia.com, publica sus datos en los siguientes proyectos:

Weather Underground PWS IMURCIAP2 Meteoclimatic www.awekas.at

Web Analytics

Clicky